Time;durP1;ratioP1;P1;durP2;ratioP2;P2;SDS_P1;SDS_P2;PMS_P1;PMS_P2;Temp;Humidity;BMP_temperature;BMP_pressure;BME280_temperature;BME280_humidity;BME280_pressure;Samples;Min_cycle;Max_cycle;Signal;HPM_P1;HPM_P2
2022/11/04 00:01:13;;;;;;;4.78;4.03;;;11.60;99.90;;;;;;4942622;29;20044;-67
2022/11/04 00:03:39;;;;;;;3.55;3.13;;;11.50;99.90;;;;;;4957321;28;20054;-67
2022/11/04 00:06:05;;;;;;;5.43;3.08;;;11.50;99.90;;;;;;4956900;29;20035;-66
2022/11/04 00:08:30;;;;;;;2.80;2.08;;;11.50;99.90;;;;;;4957355;29;20122;-66
2022/11/04 00:13:41;;;;;;;2.35;1.42;;;11.50;99.90;;;;;;4930352;29;20047;-67
2022/11/04 00:18:52;;;;;;;2.50;1.60;;;11.20;99.90;;;;;;4939810;29;20055;-67
2022/11/04 00:29:32;;;;;;;2.42;1.27;;;11.10;99.90;;;;;;4955680;29;20051;-67
2022/11/04 00:34:42;;;;;;;3.00;1.42;;;11.10;99.90;;;;;;4955918;29;20051;-67
2022/11/04 00:37:07;;;;;;;1.67;0.90;;;11.20;99.90;;;;;;4951888;29;20039;-66
2022/11/04 00:39:33;;;;;;;2.17;0.80;;;11.00;99.90;;;;;;4950611;29;20031;-66
2022/11/04 00:41:59;;;;;;;3.85;0.75;;;11.20;99.90;;;;;;4951686;28;20486;-66
2022/11/04 00:44:25;;;;;;;1.13;0.80;;;;;;;;;;4952747;29;20545;-67
2022/11/04 00:46:51;;;;;;;1.83;0.90;;;;;;;;;;4955520;29;20105;-67
2022/11/04 00:49:17;;;;;;;1.33;0.88;;;;;;;;;;4938854;29;20047;-66
2022/11/04 00:51:42;;;;;;;4.90;1.13;;;11.00;99.90;;;;;;4937580;29;20457;-67
2022/11/04 00:54:08;;;;;;;3.17;0.95;;;11.20;99.90;;;;;;4931379;29;20047;-67
2022/11/04 00:56:36;;;;;;;2.47;0.80;;;11.00;99.90;;;;;;4938515;29;20051;-66
2022/11/04 00:59:02;;;;;;;4.00;1.00;;;;;;;;;;4939345;29;20050;-66
2022/11/04 01:01:28;;;;;;;3.67;0.88;;;10.80;99.90;;;;;;4927799;29;20074;-67
2022/11/04 01:03:55;;;;;;;1.95;0.80;;;10.80;99.90;;;;;;4951190;29;20475;-67
2022/11/04 01:06:22;;;;;;;1.48;0.75;;;10.90;99.90;;;;;;4955007;29;20042;-66
2022/11/04 01:08:48;;;;;;;2.30;0.90;;;10.90;99.90;;;;;;4939214;29;20085;-66
2022/11/04 01:11:15;;;;;;;1.27;0.80;;;;;;;;;;4954784;28;20035;-66
2022/11/04 01:13:41;;;;;;;2.05;0.93;;;10.90;99.90;;;;;;4954102;29;20047;-66
2022/11/04 01:16:10;;;;;;;1.83;0.85;;;11.00;99.90;;;;;;4938451;29;20191;-66
2022/11/04 01:18:36;;;;;;;2.97;0.82;;;11.10;99.90;;;;;;4938193;29;20090;-66
2022/11/04 01:21:06;;;;;;;2.88;0.80;;;10.90;99.90;;;;;;4954922;29;20039;-66
2022/11/04 01:23:35;;;;;;;2.13;1.00;;;11.00;99.90;;;;;;4935991;29;20051;-66
2022/11/04 01:26:05;;;;;;;2.70;0.80;;;10.70;99.90;;;;;;4952664;28;20533;-67
2022/11/04 01:28:30;;;;;;;1.90;1.05;;;10.90;99.90;;;;;;4954499;28;20459;-66
2022/11/04 01:30:56;;;;;;;1.55;0.82;;;;;;;;;;4936585;29;20095;-66
2022/11/04 01:33:23;;;;;;;3.40;1.00;;;10.90;99.90;;;;;;4953138;28;20047;-66
2022/11/04 01:35:49;;;;;;;2.08;1.05;;;11.00;99.90;;;;;;4954790;29;20047;-66
2022/11/04 01:38:15;;;;;;;2.60;0.90;;;10.80;99.90;;;;;;4922867;29;20118;-66
2022/11/04 01:40:41;;;;;;;1.60;1.17;;;10.80;99.90;;;;;;4937144;29;20043;-66
2022/11/04 01:43:18;;;;;;;2.83;1.10;;;10.80;99.90;;;;;;4955137;29;20086;-66
2022/11/04 01:45:49;;;;;;;2.22;0.80;;;10.80;99.90;;;;;;4954613;29;20082;-67
2022/11/04 01:48:28;;;;;;;1.55;1.00;;;10.80;99.90;;;;;;4937380;29;20054;-66
2022/11/04 01:50:54;;;;;;;1.58;0.90;;;10.80;99.90;;;;;;4938373;29;20051;-66
2022/11/04 01:53:33;;;;;;;3.03;1.15;;;10.80;99.90;;;;;;4955073;29;20138;-66
2022/11/04 01:56:01;;;;;;;4.05;1.30;;;10.70;99.90;;;;;;4937726;29;20409;-66
2022/11/04 01:58:34;;;;;;;3.97;1.15;;;;;;;;;;4937525;29;20051;-67
2022/11/04 02:01:01;;;;;;;2.17;1.10;;;10.80;99.90;;;;;;4938513;29;20051;-66
2022/11/04 02:03:31;;;;;;;3.00;0.95;;;10.80;99.90;;;;;;4936227;29;20050;-66
2022/11/04 02:05:58;;;;;;;3.85;0.85;;;11.00;99.90;;;;;;4953780;29;20094;-67
2022/11/04 02:08:24;;;;;;;1.92;0.90;;;10.90;99.90;;;;;;4921619;29;20101;-66
2022/11/04 02:10:56;;;;;;;3.97;1.25;;;10.80;99.90;;;;;;4954699;29;20406;-67
2022/11/04 02:13:22;;;;;;;1.15;0.60;;;;;;;;;;4928325;29;20039;-66
2022/11/04 02:16:14;;;;;;;3.33;0.63;;;11.00;99.90;;;;;;4937028;29;20094;-66
2022/11/04 02:19:02;;;;;;;3.10;1.13;;;10.80;99.90;;;;;;4955138;29;20047;-66
2022/11/04 02:22:13;;;;;;;5.25;0.50;;;10.80;99.90;;;;;;4935130;29;20062;-67
2022/11/04 02:24:59;;;;;;;0.85;0.70;;;10.70;99.90;;;;;;4952031;29;20054;-66
2022/11/04 02:28:15;;;;;;;3.58;0.55;;;10.70;99.90;;;;;;4936290;29;20453;-66
2022/11/04 02:30:51;;;;;;;1.03;0.60;;;10.70;99.90;;;;;;4921188;29;20138;-66
2022/11/04 02:33:19;;;;;;;2.92;1.25;;;10.80;99.90;;;;;;4933408;29;20385;-66
2022/11/04 02:36:10;;;;;;;4.45;0.80;;;10.90;99.90;;;;;;4936243;29;20047;-67
2022/11/04 02:38:49;;;;;;;0.77;0.60;;;10.70;99.90;;;;;;4953398;29;20036;-66
2022/11/04 02:41:18;;;;;;;2.20;0.70;;;10.80;99.90;;;;;;4948970;28;20031;-66
2022/11/04 02:44:07;;;;;;;1.65;0.80;;;10.70;99.90;;;;;;4937669;29;20036;-66
2022/11/04 02:46:43;;;;;;;2.45;0.90;;;10.70;99.90;;;;;;4934092;29;20055;-66
2022/11/04 02:49:13;;;;;;;2.50;0.75;;;;;;;;;;4954037;29;20098;-66
2022/11/04 02:52:03;;;;;;;10.70;1.20;;;10.60;99.90;;;;;;4951628;29;20040;-66
2022/11/04 02:54:37;;;;;;;3.03;0.90;;;11.00;99.90;;;;;;4953738;29;20039;-66
2022/11/04 02:57:07;;;;;;;3.07;1.10;;;10.80;99.90;;;;;;4929312;29;20055;-66
2022/11/04 02:59:38;;;;;;;3.95;1.42;;;10.80;99.90;;;;;;4937571;29;20043;-66
2022/11/04 03:02:09;;;;;;;3.67;1.00;;;10.70;99.90;;;;;;4944134;29;20123;-66
2022/11/04 03:04:42;;;;;;;5.55;1.20;;;10.80;99.90;;;;;;4953946;29;20043;-66
2022/11/04 03:07:13;;;;;;;2.47;0.95;;;10.80;99.90;;;;;;4954042;29;20039;-66
2022/11/04 03:09:45;;;;;;;6.25;1.63;;;10.60;99.90;;;;;;4937187;28;20081;-67
2022/11/04 03:12:16;;;;;;;4.78;1.20;;;10.70;99.90;;;;;;4952561;29;20039;-66
2022/11/04 03:14:47;;;;;;;2.17;1.17;;;10.80;99.90;;;;;;4949921;29;20051;-67
2022/11/04 03:17:21;;;;;;;3.55;1.38;;;10.80;99.90;;;;;;4936186;29;20502;-66
2022/11/04 03:20:02;;;;;;;2.53;1.17;;;10.80;99.90;;;;;;4954558;28;20124;-66
2022/11/04 03:22:37;;;;;;;4.43;0.98;;;10.70;99.90;;;;;;4927239;29;20090;-66
2022/11/04 03:25:05;;;;;;;5.88;1.85;;;10.90;99.90;;;;;;4941246;29;20043;-67
2022/11/04 03:28:08;;;;;;;7.68;1.33;;;10.80;99.90;;;;;;4951118;28;20054;-67
2022/11/04 03:30:46;;;;;;;2.30;1.08;;;10.70;99.90;;;;;;4952884;28;20125;-66
2022/11/04 03:33:19;;;;;;;1.65;0.80;;;10.40;99.90;;;;;;4935881;29;20086;-67
2022/11/04 03:35:45;;;;;;;1.92;0.70;;;10.70;99.90;;;;;;4936057;29;20051;-66
2022/11/04 03:38:11;;;;;;;1.73;0.68;;;10.80;99.90;;;;;;4950798;29;20045;-67
2022/11/04 03:40:36;;;;;;;2.83;0.85;;;10.80;99.90;;;;;;4929365;29;20141;-66
2022/11/04 03:43:10;;;;;;;4.10;1.38;;;10.80;99.90;;;;;;4941911;29;20407;-66
2022/11/04 03:45:37;;;;;;;2.53;1.13;;;10.80;99.90;;;;;;4953095;29;20035;-66
2022/11/04 03:48:02;;;;;;;5.32;1.25;;;10.90;99.90;;;;;;4953678;29;20052;-66
2022/11/04 03:50:31;;;;;;;3.25;1.00;;;10.80;99.90;;;;;;4954298;29;20039;-66
2022/11/04 03:52:57;;;;;;;3.28;0.77;;;10.70;99.90;;;;;;4926215;29;20086;-67
2022/11/04 03:55:31;;;;;;;4.68;1.10;;;10.80;99.90;;;;;;4955603;29;20035;-66
2022/11/04 03:58:07;;;;;;;3.83;0.95;;;10.70;99.90;;;;;;4938727;29;20051;-66
2022/11/04 04:00:45;;;;;;;4.30;1.15;;;10.80;99.90;;;;;;4956620;29;20724;-66
2022/11/04 04:03:14;;;;;;;3.88;0.80;;;11.00;99.90;;;;;;4951021;29;20102;-66
2022/11/04 04:05:54;;;;;;;1.65;0.85;;;10.70;99.90;;;;;;4938707;29;20126;-66
2022/11/04 04:08:29;;;;;;;1.83;0.80;;;10.60;99.90;;;;;;4956719;29;20477;-66
2022/11/04 04:11:35;;;;;;;2.55;1.00;;;10.60;99.90;;;;;;4940264;29;20051;-66
2022/11/04 04:14:39;;;;;;;2.45;0.98;;;10.60;99.90;;;;;;4936530;29;20039;-66
2022/11/04 04:17:31;;;;;;;2.25;2.00;;;10.60;99.90;;;;;;4938836;29;20120;-66
2022/11/04 04:20:17;;;;;;;3.53;0.90;;;10.60;99.90;;;;;;4956669;29;20042;-66
2022/11/04 04:22:46;;;;;;;;;;;10.50;99.90;;;;;;4946046;29;20051;-66
2022/11/04 04:28:00;;;;;;;4.60;1.00;;;10.50;99.90;;;;;;4954051;28;20043;-66
2022/11/04 04:30:26;;;;;;;2.47;0.90;;;;;;;;;;4954025;29;20046;-66
2022/11/04 04:33:05;;;;;;;3.47;1.23;;;10.70;99.90;;;;;;4944216;29;20032;-66
2022/11/04 04:35:41;;;;;;;2.97;0.80;;;10.50;99.90;;;;;;4952106;29;20059;-66
2022/11/04 04:46:59;;;;;;;6.22;1.00;;;10.60;99.90;;;;;;4938217;29;20051;-66
2022/11/04 04:49:33;;;;;;;6.18;0.90;;;10.30;99.90;;;;;;4926599;29;20050;-66
2022/11/04 04:52:01;;;;;;;1.73;0.60;;;10.40;99.90;;;;;;4938251;29;20114;-66
2022/11/04 04:54:27;;;;;;;2.53;0.80;;;10.30;99.90;;;;;;4935728;29;20471;-66
2022/11/04 04:56:53;;;;;;;1.38;0.63;;;10.20;99.90;;;;;;4949551;29;20086;-66
2022/11/04 04:59:19;;;;;;;3.47;0.85;;;;;;;;;;4927968;29;20083;-66
2022/11/04 05:01:44;;;;;;;2.35;0.90;;;10.30;99.90;;;;;;4942560;29;20043;-66
2022/11/04 05:04:10;;;;;;;3.40;0.93;;;10.30;99.90;;;;;;4931776;29;20040;-66
2022/11/04 05:06:35;;;;;;;1.45;0.50;;;10.30;99.90;;;;;;4950912;29;20094;-66
2022/11/04 05:09:01;;;;;;;1.48;0.90;;;10.30;99.90;;;;;;4938443;29;20517;-66
2022/11/04 05:11:27;;;;;;;4.38;0.82;;;;;;;;;;4955386;29;20085;-66
2022/11/04 05:13:53;;;;;;;3.47;0.93;;;;;;;;;;4950134;29;20077;-66
2022/11/04 05:16:19;;;;;;;2.08;0.80;;;;;;;;;;4936613;29;20107;-67
2022/11/04 05:18:45;;;;;;;2.50;0.75;;;10.30;99.90;;;;;;4936095;29;20044;-66
2022/11/04 05:21:13;;;;;;;2.47;0.98;;;10.20;99.90;;;;;;4936787;29;20044;-66
2022/11/04 05:23:38;;;;;;;1.48;0.75;;;10.30;99.90;;;;;;4924158;29;20044;-66
2022/11/04 05:26:04;;;;;;;1.52;0.73;;;10.10;99.90;;;;;;4950376;29;20035;-66
2022/11/04 05:28:30;;;;;;;4.57;0.90;;;10.10;99.90;;;;;;4935195;29;20185;-66
2022/11/04 05:30:56;;;;;;;2.15;0.80;;;10.00;99.90;;;;;;4940053;29;20047;-66
2022/11/04 05:33:22;;;;;;;0.90;0.60;;;9.80;99.90;;;;;;4943911;29;20043;-66
2022/11/04 05:35:48;;;;;;;1.52;0.60;;;;;;;;;;4945957;29;20402;-66
2022/11/04 05:38:13;;;;;;;1.30;0.73;;;9.70;99.90;;;;;;4933654;29;20039;-66
2022/11/04 05:40:39;;;;;;;1.70;0.55;;;9.80;99.90;;;;;;4934833;29;20054;-66
2022/11/04 05:43:05;;;;;;;2.55;0.70;;;9.70;99.90;;;;;;4937627;29;20039;-66
2022/11/04 05:45:30;;;;;;;3.50;0.80;;;9.90;99.90;;;;;;4954605;28;20537;-66
2022/11/04 05:48:04;;;;;;;8.13;0.75;;;9.80;99.90;;;;;;4937431;29;20037;-66
2022/11/04 05:50:31;;;;;;;2.08;0.80;;;9.80;99.90;;;;;;4928799;29;20560;-66
2022/11/04 05:52:58;;;;;;;2.53;1.00;;;9.70;99.90;;;;;;4926833;29;20046;-66
2022/11/04 05:55:24;;;;;;;3.28;0.80;;;;;;;;;;4935571;29;20057;-66
2022/11/04 05:57:50;;;;;;;1.30;0.60;;;9.60;99.90;;;;;;4929166;29;20055;-66
2022/11/04 06:00:16;;;;;;;1.00;0.65;;;9.60;99.90;;;;;;4931479;29;20043;-66
2022/11/04 06:02:41;;;;;;;1.88;0.80;;;9.60;99.90;;;;;;4931537;29;20043;-66
2022/11/04 06:05:07;;;;;;;2.13;0.73;;;9.70;99.90;;;;;;4953229;29;20582;-66
2022/11/04 06:07:33;;;;;;;1.27;0.65;;;;;;;;;;4930634;29;20051;-67
2022/11/04 06:09:59;;;;;;;1.13;0.80;;;9.60;99.90;;;;;;4936672;29;20050;-66
2022/11/04 06:12:25;;;;;;;0.93;0.70;;;9.30;99.90;;;;;;4946386;29;20071;-66
2022/11/04 06:14:51;;;;;;;2.08;0.70;;;;;;;;;;4924106;28;20137;-66
2022/11/04 06:17:21;;;;;;;2.08;0.80;;;9.30;99.90;;;;;;4940270;28;20518;-66
2022/11/04 06:19:47;;;;;;;1.75;0.70;;;;;;;;;;4948010;29;20095;-66
2022/11/04 06:22:15;;;;;;;3.30;0.70;;;9.40;99.90;;;;;;4949245;29;20086;-66
2022/11/04 06:24:40;;;;;;;1.98;0.70;;;9.30;99.90;;;;;;4949231;28;20490;-66
2022/11/04 06:27:06;;;;;;;1.35;0.70;;;9.50;99.90;;;;;;4934685;29;20047;-66
2022/11/04 06:29:32;;;;;;;1.75;0.80;;;9.40;99.90;;;;;;4937775;29;20047;-66
2022/11/04 06:31:58;;;;;;;1.30;0.82;;;9.30;99.90;;;;;;4951015;28;20066;-66
2022/11/04 06:34:24;;;;;;;1.35;0.88;;;9.20;99.90;;;;;;4944068;29;20043;-66
2022/11/04 06:36:50;;;;;;;2.15;0.63;;;9.40;99.90;;;;;;4937443;29;20074;-66
2022/11/04 06:39:15;;;;;;;3.03;1.00;;;9.30;99.90;;;;;;4955086;29;20543;-66
2022/11/04 06:41:41;;;;;;;3.63;1.05;;;9.30;99.90;;;;;;4936368;29;20066;-66
2022/11/04 06:44:07;;;;;;;2.88;0.90;;;;;;;;;;4946179;28;20043;-66
2022/11/04 06:46:36;;;;;;;2.28;0.98;;;9.40;99.90;;;;;;4936979;29;20078;-66
2022/11/04 06:49:04;;;;;;;1.60;1.05;;;9.30;99.90;;;;;;4937654;29;20425;-66
2022/11/04 06:51:30;;;;;;;3.80;1.40;;;;;;;;;;4938767;28;20038;-66
2022/11/04 06:53:55;;;;;;;1.33;1.20;;;9.20;99.90;;;;;;4936516;29;20095;-66
2022/11/04 06:56:21;;;;;;;4.22;1.48;;;9.30;99.90;;;;;;4953552;29;20161;-66
2022/11/04 06:58:48;;;;;;;1.75;0.98;;;;;;;;;;4947519;29;20028;-66
2022/11/04 07:01:15;;;;;;;2.40;1.63;;;9.40;99.90;;;;;;4939841;29;20401;-66
2022/11/04 07:03:41;;;;;;;2.05;1.00;;;;;;;;;;4935258;29;20054;-66
2022/11/04 07:06:08;;;;;;;2.75;0.90;;;9.30;99.90;;;;;;4953772;28;20039;-66
2022/11/04 07:08:35;;;;;;;2.55;1.20;;;;;;;;;;4954406;28;20090;-66
2022/11/04 07:11:01;;;;;;;3.08;1.17;;;9.30;99.90;;;;;;4948982;29;20037;-66
2022/11/04 07:13:27;;;;;;;2.25;0.95;;;9.10;99.90;;;;;;4928787;29;20402;-66
2022/11/04 07:15:52;;;;;;;3.83;1.30;;;9.30;99.90;;;;;;4928016;29;20047;-66
2022/11/04 07:18:18;;;;;;;3.30;1.45;;;;;;;;;;4953014;29;20043;-66
2022/11/04 07:20:44;;;;;;;2.95;1.15;;;9.30;99.90;;;;;;4937051;29;20557;-66
2022/11/04 07:23:10;;;;;;;3.42;1.30;;;9.30;99.90;;;;;;4935560;29;20051;-66
2022/11/04 07:25:36;;;;;;;1.75;1.02;;;;;;;;;;4935318;29;20050;-66
2022/11/04 07:28:01;;;;;;;3.58;1.50;;;9.40;99.90;;;;;;4956240;28;20039;-66
2022/11/04 07:30:27;;;;;;;3.25;1.60;;;9.50;99.90;;;;;;4958117;29;20490;-66
2022/11/04 07:32:52;;;;;;;2.75;1.30;;;9.60;99.90;;;;;;4957941;29;20114;-66
2022/11/04 07:35:18;;;;;;;3.67;1.42;;;9.70;99.90;;;;;;4956722;28;20198;-66
2022/11/04 07:37:44;;;;;;;2.38;1.42;;;9.90;99.90;;;;;;4958216;28;20039;-65
2022/11/04 07:40:10;;;;;;;2.40;1.30;;;9.90;99.90;;;;;;4940779;28;20066;-65
2022/11/04 07:42:36;;;;;;;1.73;1.00;;;10.10;99.90;;;;;;4942296;29;20126;-65
2022/11/04 07:45:01;;;;;;;2.10;1.17;;;10.20;99.90;;;;;;4936354;29;20088;-65
2022/11/04 07:47:31;;;;;;;3.08;0.93;;;10.40;99.90;;;;;;4935148;29;20106;-65
2022/11/04 07:49:56;;;;;;;2.45;1.00;;;10.40;99.90;;;;;;4956290;29;20036;-65
2022/11/04 07:52:22;;;;;;;4.93;1.15;;;10.60;99.90;;;;;;4956142;29;20043;-66
2022/11/04 07:54:48;;;;;;;2.85;0.98;;;10.70;99.90;;;;;;4956335;29;20082;-65
2022/11/04 07:57:14;;;;;;;2.40;0.93;;;10.70;99.90;;;;;;4957436;29;20047;-65
2022/11/04 07:59:39;;;;;;;3.75;1.15;;;10.90;99.90;;;;;;4940190;29;20481;-65
2022/11/04 08:02:05;;;;;;;2.08;1.25;;;;;;;;;;4938562;29;20486;-65
2022/11/04 08:04:31;;;;;;;3.75;1.48;;;10.90;99.90;;;;;;4953732;29;20047;-65
2022/11/04 08:06:57;;;;;;;2.45;1.25;;;10.80;99.90;;;;;;4934862;29;20079;-65
2022/11/04 08:09:22;;;;;;;3.90;1.13;;;10.80;99.90;;;;;;4951773;29;20047;-64
2022/11/04 08:11:48;;;;;;;3.50;1.25;;;10.60;99.90;;;;;;4934029;29;20478;-65
2022/11/04 08:14:14;;;;;;;3.13;1.30;;;;;;;;;;4952210;28;20058;-64
2022/11/04 08:16:40;;;;;;;2.75;1.10;;;10.60;99.90;;;;;;4939092;29;20097;-64
2022/11/04 08:19:05;;;;;;;4.05;1.15;;;10.50;99.90;;;;;;4956739;29;20073;-64
2022/11/04 08:21:32;;;;;;;2.92;1.15;;;10.50;99.90;;;;;;4939777;29;20039;-65
2022/11/04 08:23:58;;;;;;;2.58;1.65;;;10.40;99.90;;;;;;4939790;29;20090;-65
2022/11/04 08:26:24;;;;;;;3.38;1.40;;;10.60;99.90;;;;;;4939837;29;20043;-64
2022/11/04 08:28:51;;;;;;;2.72;1.10;;;;;;;;;;4939831;29;20054;-64
2022/11/04 08:31:25;;;;;;;5.10;1.48;;;11.40;99.90;;;;;;4956850;29;20082;-64
2022/11/04 08:33:52;;;;;;;2.65;1.23;;;11.80;99.90;;;;;;4939606;29;20039;-64
2022/11/04 08:36:39;;;;;;;3.15;1.17;;;12.00;99.90;;;;;;4939719;29;20051;-65
2022/11/04 08:39:06;;;;;;;5.13;1.23;;;12.30;99.90;;;;;;4956766;28;20039;-65
2022/11/04 08:41:33;;;;;;;2.47;1.20;;;12.60;99.90;;;;;;4956839;29;20506;-65
2022/11/04 08:43:59;;;;;;;2.13;1.15;;;12.60;99.90;;;;;;4939448;29;20506;-65
2022/11/04 08:46:27;;;;;;;3.50;1.13;;;12.90;99.90;;;;;;4956941;29;20043;-65
2022/11/04 08:48:52;;;;;;;3.40;0.90;;;13.10;99.90;;;;;;4956703;29;20047;-65
2022/11/04 08:51:23;;;;;;;4.95;0.88;;;13.30;99.90;;;;;;4956805;29;20042;-65
2022/11/04 08:53:49;;;;;;;3.63;1.15;;;13.20;99.90;;;;;;4939437;29;20035;-65
2022/11/04 08:56:18;;;;;;;2.08;0.70;;;13.70;99.90;;;;;;4953590;28;20134;-65
2022/11/04 08:58:44;;;;;;;3.47;1.05;;;13.90;99.90;;;;;;4939193;29;20091;-65
2022/11/04 09:01:11;;;;;;;1.90;0.90;;;15.20;99.90;;;;;;4939538;29;20526;-65
2022/11/04 09:03:38;;;;;;;2.75;0.85;;;16.80;99.90;;;;;;4956513;29;20466;-65
2022/11/04 09:06:13;;;;;;;1.88;0.55;;;18.10;99.90;;;;;;4956442;29;20043;-65
2022/11/04 09:08:39;;;;;;;4.03;1.08;;;17.40;99.90;;;;;;4944055;29;20070;-65
2022/11/04 09:11:08;;;;;;;3.65;0.73;;;16.60;99.90;;;;;;4956330;29;20069;-66
2022/11/04 09:13:34;;;;;;;3.10;0.85;;;16.90;99.90;;;;;;4939118;29;20383;-66
2022/11/04 09:16:00;;;;;;;2.13;0.57;;;16.50;99.90;;;;;;4956417;29;20045;-66
2022/11/04 09:18:25;;;;;;;2.05;0.55;;;16.00;99.90;;;;;;4956080;28;20501;-65
2022/11/04 09:20:51;;;;;;;1.95;0.50;;;16.10;99.90;;;;;;4956376;29;20110;-65
2022/11/04 09:23:17;;;;;;;5.32;0.75;;;16.00;99.90;;;;;;4956184;29;20054;-66
2022/11/04 09:25:43;;;;;;;4.50;1.23;;;16.00;99.90;;;;;;4938922;29;20047;-66
2022/11/04 09:28:09;;;;;;;3.75;0.93;;;16.40;99.90;;;;;;4956038;29;20070;-65
2022/11/04 09:30:35;;;;;;;2.90;0.85;;;16.20;99.90;;;;;;4955894;29;20070;-65
2022/11/04 09:33:01;;;;;;;1.85;0.50;;;17.90;99.90;;;;;;4922605;29;20050;-65
2022/11/04 09:35:27;;;;;;;2.25;0.60;;;19.40;99.90;;;;;;4938852;29;20493;-66
2022/11/04 09:37:53;;;;;;;4.78;1.00;;;18.30;99.90;;;;;;4955629;29;20581;-65
2022/11/04 09:40:22;;;;;;;2.47;0.60;;;16.90;99.90;;;;;;4955790;29;20032;-66
2022/11/04 09:43:24;;;;;;;3.03;0.88;;;17.10;99.90;;;;;;4938458;29;20046;-66
2022/11/04 09:45:49;;;;;;;2.10;0.70;;;16.40;99.90;;;;;;4955626;29;20047;-65
2022/11/04 09:48:30;;;;;;;3.75;0.60;;;16.00;99.90;;;;;;4938341;29;20087;-66
2022/11/04 09:51:04;;;;;;;3.08;1.20;;;15.70;99.90;;;;;;4954935;28;20039;-66
2022/11/04 09:53:42;;;;;;;1.50;0.68;;;15.60;99.90;;;;;;4938361;29;20047;-66
2022/11/04 09:56:24;;;;;;;1.75;0.65;;;15.30;99.90;;;;;;4955149;29;20106;-65
2022/11/04 09:58:50;;;;;;;4.20;0.82;;;14.70;99.90;;;;;;4955543;29;20047;-65
2022/11/04 10:02:12;;;;;;;1.60;0.77;;;14.70;99.90;;;;;;4937794;29;20066;-66
2022/11/04 10:04:46;;;;;;;3.75;0.80;;;14.50;99.90;;;;;;4896150;29;20044;-65
2022/11/04 10:07:48;;;;;;;2.38;0.77;;;14.40;99.90;;;;;;4896338;29;20051;-65
2022/11/04 10:10:19;;;;;;;3.60;0.80;;;14.30;99.90;;;;;;4918612;29;20106;-65
2022/11/04 10:13:03;;;;;;;2.58;0.90;;;14.20;99.90;;;;;;4955468;29;20075;-65
2022/11/04 10:15:47;;;;;;;6.00;1.42;;;13.80;99.90;;;;;;4910054;29;20046;-65
2022/11/04 10:18:54;;;;;;;8.23;1.35;;;13.90;99.90;;;;;;4955154;29;20046;-65
2022/11/04 10:21:55;;;;;;;2.63;1.15;;;13.70;99.90;;;;;;4937923;29;20521;-65
2022/11/04 10:24:29;;;;;;;4.88;1.55;;;13.90;99.90;;;;;;4928536;29;20043;-66
2022/11/04 10:27:01;;;;;;;5.27;1.83;;;13.70;99.90;;;;;;4937796;29;20114;-65
2022/11/04 10:29:38;;;;;;;3.65;2.10;;;13.30;99.90;;;;;;4955074;29;20281;-65
2022/11/04 10:32:17;;;;;;;3.35;2.00;;;13.60;99.90;;;;;;4955045;29;20456;-65
2022/11/04 10:35:01;;;;;;;6.35;2.35;;;13.20;99.90;;;;;;4937809;29;20130;-65
2022/11/04 10:37:27;;;;;;;5.30;2.80;;;13.10;99.90;;;;;;4951010;29;20043;-65
2022/11/04 10:40:19;;;;;;;3.20;2.10;;;13.10;99.90;;;;;;4954919;29;20535;-65
2022/11/04 10:42:45;;;;;;;4.78;2.47;;;13.00;99.90;;;;;;4929728;29;20054;-65
2022/11/04 10:45:11;;;;;;;7.80;2.45;;;12.90;99.90;;;;;;4954698;29;20413;-66
2022/11/04 10:47:48;;;;;;;7.63;2.60;;;13.00;99.90;;;;;;4954551;28;20047;-65
2022/11/04 10:50:33;;;;;;;3.53;2.20;;;12.90;99.90;;;;;;4955042;29;20035;-65
2022/11/04 10:53:26;;;;;;;6.88;2.58;;;13.10;99.90;;;;;;4937778;29;20438;-66
2022/11/04 10:56:17;;;;;;;5.00;1.95;;;13.30;99.90;;;;;;4952711;29;20047;-65
2022/11/04 10:58:46;;;;;;;6.45;2.67;;;13.10;99.90;;;;;;4927226;29;20059;-65
2022/11/04 11:01:25;;;;;;;5.07;1.70;;;13.20;99.90;;;;;;4937274;28;20126;-65
2022/11/04 11:03:51;;;;;;;8.95;1.50;;;13.30;99.90;;;;;;4940366;29;20047;-65
2022/11/04 11:06:25;;;;;;;5.78;1.67;;;13.30;99.90;;;;;;4958250;29;20053;-66
2022/11/04 11:08:55;;;;;;;5.80;1.90;;;13.30;99.90;;;;;;4941710;29;20051;-65
2022/11/04 11:11:37;;;;;;;4.13;1.58;;;13.50;99.90;;;;;;4958577;29;20098;-65
2022/11/04 11:14:03;;;;;;;5.93;1.42;;;13.30;99.90;;;;;;4958355;29;20047;-65
2022/11/04 11:16:30;;;;;;;2.50;1.40;;;13.20;99.90;;;;;;4941104;29;20043;-65
2022/11/04 11:19:11;;;;;;;4.45;2.00;;;12.90;99.90;;;;;;4941322;29;20043;-65
2022/11/04 11:21:51;;;;;;;4.07;1.85;;;13.10;99.90;;;;;;4958533;29;20045;-65
2022/11/04 11:24:25;;;;;;;4.25;1.80;;;13.00;99.90;;;;;;4958242;29;20506;-65
2022/11/04 11:26:57;;;;;;;4.88;1.70;;;12.90;99.90;;;;;;4941305;29;20054;-65
2022/11/04 11:29:29;;;;;;;6.28;2.63;;;13.20;99.90;;;;;;4958016;29;20057;-65
2022/11/04 11:31:56;;;;;;;3.03;1.42;;;13.50;99.90;;;;;;4958226;29;20402;-65
2022/11/04 11:34:31;;;;;;;6.05;2.05;;;13.80;99.90;;;;;;4956943;29;20043;-65
2022/11/04 11:36:58;;;;;;;3.63;2.15;;;13.60;99.90;;;;;;4940721;29;20102;-65
2022/11/04 11:39:28;;;;;;;3.17;2.10;;;13.60;99.90;;;;;;4940637;29;20047;-65
2022/11/04 11:42:03;;;;;;;4.78;2.20;;;13.70;99.90;;;;;;4940886;29;20097;-65
2022/11/04 11:44:53;;;;;;;8.60;2.47;;;13.90;99.90;;;;;;4940625;29;20383;-65
2022/11/04 11:47:41;;;;;;;4.68;1.52;;;14.00;99.90;;;;;;4940665;29;20051;-65
2022/11/04 11:50:12;;;;;;;9.68;1.58;;;13.90;99.90;;;;;;4946352;29;20039;-65
2022/11/04 11:52:42;;;;;;;7.20;1.70;;;13.90;99.90;;;;;;4940699;29;20063;-65
2022/11/04 11:55:37;;;;;;;6.00;1.40;;;13.50;99.90;;;;;;4957838;29;20086;-65
2022/11/04 11:58:07;;;;;;;4.82;0.93;;;13.50;99.90;;;;;;4924462;29;20540;-65
2022/11/04 12:00:38;;;;;;;7.07;1.40;;;13.30;99.90;;;;;;4940586;29;20111;-65
2022/11/04 12:03:19;;;;;;;5.15;1.27;;;13.00;99.90;;;;;;4957733;29;20047;-65
2022/11/04 12:05:54;;;;;;;2.60;0.77;;;12.80;99.90;;;;;;4957578;29;20043;-65
2022/11/04 12:08:38;;;;;;;;;;;12.70;99.90;;;;;;4940813;29;20054;-65
2022/11/04 12:11:29;;;;;;;3.45;1.27;;;12.10;99.90;;;;;;4957561;29;19922;-65
2022/11/04 12:14:31;;;;;;;3.05;0.98;;;12.30;99.90;;;;;;4928728;29;20596;-65
2022/11/04 12:17:11;;;;;;;2.17;0.70;;;12.10;99.90;;;;;;4939705;29;20055;-65
2022/11/04 12:20:04;;;;;;;4.90;1.60;;;12.00;99.90;;;;;;4940082;29;20594;-65
2022/11/04 12:22:46;;;;;;;7.75;1.10;;;12.00;99.90;;;;;;4947126;29;20122;-65
2022/11/04 12:25:59;;;;;;;7.50;1.92;;;12.00;99.90;;;;;;4957289;29;20063;-65
2022/11/04 12:28:31;;;;;;;5.35;1.00;;;11.80;99.90;;;;;;4939251;29;20113;-65
2022/11/04 12:31:28;;;;;;;2.78;1.17;;;12.00;99.90;;;;;;4924062;29;20043;-65
2022/11/04 12:34:29;;;;;;;7.78;1.45;;;12.10;99.90;;;;;;4954222;29;20118;-65
2022/11/04 12:37:04;;;;;;;6.25;1.05;;;12.00;99.90;;;;;;4957077;29;20043;-65
2022/11/04 12:39:43;;;;;;;5.28;1.13;;;12.20;99.90;;;;;;4956744;29;20035;-65
2022/11/04 12:42:42;;;;;;;2.53;1.00;;;12.10;99.90;;;;;;4957012;29;20066;-65
2022/11/04 12:45:08;;;;;;;3.58;1.10;;;12.20;99.90;;;;;;4946732;29;20043;-65
2022/11/04 12:47:41;;;;;;;3.20;1.17;;;12.30;99.90;;;;;;4939068;29;20050;-65
2022/11/04 12:50:32;;;;;;;4.72;1.38;;;12.30;99.90;;;;;;4939459;29;20046;-65
2022/11/04 12:53:03;;;;;;;4.82;0.93;;;12.40;99.90;;;;;;4956528;29;20042;-65
2022/11/04 12:55:53;;;;;;;5.25;1.23;;;12.50;99.90;;;;;;4939132;29;20537;-65
2022/11/04 12:58:21;;;;;;;3.67;1.23;;;12.30;99.90;;;;;;4941697;29;20114;-65
2022/11/04 13:00:53;;;;;;;5.85;0.90;;;12.30;99.90;;;;;;4939470;29;20074;-65
2022/11/04 13:03:35;;;;;;;3.00;0.90;;;12.30;99.90;;;;;;4939456;29;20043;-65
2022/11/04 13:06:03;;;;;;;3.03;1.15;;;12.10;99.90;;;;;;4956532;29;20053;-65
2022/11/04 13:08:34;;;;;;;7.22;1.05;;;12.10;99.90;;;;;;4956293;29;20043;-65
2022/11/04 13:11:21;;;;;;;9.02;1.38;;;12.10;99.90;;;;;;4939070;29;20047;-65
2022/11/04 13:13:56;;;;;;;7.78;1.45;;;12.00;99.90;;;;;;4926807;29;20052;-65
2022/11/04 13:16:22;;;;;;;4.20;1.15;;;12.00;99.90;;;;;;4956222;29;20098;-65
2022/11/04 13:18:49;;;;;;;6.30;1.30;;;12.10;99.90;;;;;;4939060;29;20039;-65
2022/11/04 13:21:28;;;;;;;7.65;1.23;;;12.20;99.90;;;;;;4939155;29;20051;-65
2022/11/04 13:24:10;;;;;;;8.07;1.35;;;12.40;99.90;;;;;;4943350;29;20086;-65
2022/11/04 13:26:35;;;;;;;7.80;1.55;;;12.50;99.90;;;;;;4942976;29;20463;-65
2022/11/04 13:29:20;;;;;;;7.32;1.55;;;12.50;99.90;;;;;;4956246;29;20126;-65
2022/11/04 13:32:04;;;;;;;3.72;1.25;;;12.50;99.90;;;;;;4955964;29;20070;-65
2022/11/04 13:34:33;;;;;;;5.50;1.40;;;12.30;99.90;;;;;;4946143;29;20102;-65
2022/11/04 13:37:17;;;;;;;6.90;1.83;;;12.50;99.90;;;;;;4938712;29;20453;-65
2022/11/04 13:39:53;;;;;;;7.15;1.42;;;12.50;99.90;;;;;;4926014;29;20086;-65
2022/11/04 13:42:22;;;;;;;5.88;1.65;;;12.50;99.90;;;;;;4955728;29;20181;-66
2022/11/04 13:44:51;;;;;;;6.05;1.27;;;12.40;99.90;;;;;;4938405;29;20394;-65
2022/11/04 13:47:20;;;;;;;5.05;1.08;;;12.40;99.90;;;;;;4938208;29;20050;-65
2022/11/04 13:49:52;;;;;;;7.63;1.20;;;12.60;99.90;;;;;;4955812;29;20035;-65
2022/11/04 13:52:18;;;;;;;3.95;0.95;;;12.60;99.90;;;;;;4955625;29;20120;-65